Time;durP1;ratioP1;P1;durP2;ratioP2;P2;SDS_P1;SDS_P2;PMS_P1;PMS_P2;Temp;Humidity;BMP_temperature;BMP_pressure;BME280_temperature;BME280_humidity;BME280_pressure;Samples;Min_cycle;Max_cycle;Signal;HPM_P1;HPM_P2
2023/05/05 00:01:20;;;;;;;13.90;7.30;;;;;;;5.50;66.63;97698.92;108877;1250;99043;-73
2023/05/05 00:03:49;;;;;;;12.60;7.60;;;;;;;5.49;66.69;97693.84;108852;1250;95552;-73
2023/05/05 00:06:17;;;;;;;15.30;8.10;;;;;;;5.48;66.68;97687.37;108894;1250;96131;-73
2023/05/05 00:08:45;;;;;;;10.60;7.40;;;;;;;5.45;66.74;97686.44;108876;1250;103617;-76
2023/05/05 00:11:13;;;;;;;11.20;6.90;;;;;;;5.41;66.82;97686.73;108871;1250;101169;-78
2023/05/05 00:13:41;;;;;;;10.30;6.30;;;;;;;5.38;66.77;97688.48;108613;1250;99119;-75
2023/05/05 00:16:09;;;;;;;11.60;7.00;;;;;;;5.35;66.80;97687.91;108865;1250;95561;-73
2023/05/05 00:18:37;;;;;;;13.50;6.80;;;;;;;5.31;66.90;97690.84;108938;1250;96031;-73
2023/05/05 00:21:05;;;;;;;11.70;7.50;;;;;;;5.27;66.98;97687.71;108851;1250;103341;-73
2023/05/05 00:23:33;;;;;;;10.60;6.80;;;;;;;5.24;67.01;97685.23;108912;1250;101870;-75
2023/05/05 00:26:01;;;;;;;10.60;6.80;;;;;;;5.17;66.78;97685.35;108853;1250;107531;-74
2023/05/05 00:28:30;;;;;;;9.50;6.20;;;;;;;5.08;66.93;97684.58;108822;1250;95962;-73
2023/05/05 00:30:58;;;;;;;10.50;6.50;;;;;;;5.06;67.18;97684.25;108899;1250;96459;-73
2023/05/05 00:33:26;;;;;;;9.20;6.60;;;;;;;5.05;67.21;97681.48;108871;1250;103514;-73
2023/05/05 00:35:54;;;;;;;9.90;6.30;;;;;;;5.04;67.26;97673.58;108905;1250;101415;-73
2023/05/05 00:38:22;;;;;;;10.50;6.80;;;;;;;4.97;67.17;97672.58;108867;1250;99646;-73
2023/05/05 00:40:50;;;;;;;13.40;7.10;;;;;;;4.91;67.36;97677.14;108872;1250;95886;-73
2023/05/05 00:43:18;;;;;;;12.90;7.20;;;;;;;4.86;67.39;97677.89;108922;1250;96119;-76
2023/05/05 00:45:46;;;;;;;12.30;7.00;;;;;;;4.75;67.49;97674.14;108903;1250;103210;-73
2023/05/05 00:48:17;;;;;;;12.40;7.10;;;;;;;4.70;67.70;97673.88;108886;1250;101402;-73
2023/05/05 00:50:45;;;;;;;11.60;7.00;;;;;;;4.72;67.81;97673.91;108870;1250;100120;-75
2023/05/05 00:53:13;;;;;;;10.70;6.50;;;;;;;4.75;67.78;97669.36;108866;1250;95534;-75
2023/05/05 00:55:41;;;;;;;9.40;6.80;;;;;;;4.74;67.80;97672.13;108899;1250;96160;-73
2023/05/05 00:58:10;;;;;;;9.10;6.30;;;;;;;4.71;67.88;97674.88;108635;1251;103766;-76
2023/05/05 01:00:38;;;;;;;11.40;7.10;;;;;;;4.71;67.92;97674.49;108604;1250;101341;-76
2023/05/05 01:03:06;;;;;;;9.70;6.80;;;;;;;4.69;67.79;97674.05;108578;1250;100082;-72
2023/05/05 01:05:48;;;;;;;10.00;6.50;;;;;;;4.62;67.81;97667.83;108867;1250;95652;-73
2023/05/05 01:08:16;;;;;;;11.60;7.20;;;;;;;4.57;68.00;97661.80;108697;1250;95811;-73
2023/05/05 01:10:59;;;;;;;14.40;9.00;;;;;;;4.58;68.00;97660.73;108891;1250;103272;-73
2023/05/05 01:14:05;;;;;;;13.50;8.00;;;;;;;4.57;68.02;97656.14;108871;1250;101452;-73
2023/05/05 01:16:35;;;;;;;18.50;9.90;;;;;;;4.52;68.15;97659.20;108280;1257;99992;-73
2023/05/05 01:19:34;;;;;;;18.90;11.20;;;;;;;4.46;68.18;97659.27;108233;1258;96246;-74
2023/05/05 01:22:06;;;;;;;19.50;11.50;;;;;;;4.36;68.24;97657.88;108291;1257;96063;-76
2023/05/05 01:25:05;;;;;;;21.40;13.40;;;;;;;4.32;68.35;97657.61;108277;1257;103718;-73
2023/05/05 01:27:54;;;;;;;31.20;20.00;;;;;;;4.30;68.41;97652.66;108291;1257;101579;-76
2023/05/05 01:30:34;;;;;;;32.90;20.60;;;;;;;4.28;68.41;97658.36;108217;1257;99931;-74
2023/05/05 01:33:08;;;;;;;24.10;16.10;;;;;;;4.28;68.47;97661.97;108248;1257;95728;-73
2023/05/05 01:35:42;;;;;;;20.90;13.40;;;;;;;4.28;68.43;97660.60;108287;1256;96171;-73
2023/05/05 01:38:17;;;;;;;12.40;8.20;;;;;;;4.27;68.37;97657.66;108358;1256;102267;-74
2023/05/05 01:40:50;;;;;;;9.80;6.80;;;;;;;4.24;68.28;97659.73;108350;1257;109889;-73
2023/05/05 01:43:21;;;;;;;6.80;5.90;;;;;;;4.19;68.15;97657.27;108301;1256;99676;-74
2023/05/05 01:45:50;;;;;;;9.30;6.10;;;;;;;4.16;68.20;97657.98;108301;1256;95629;-76
2023/05/05 01:48:19;;;;;;;11.30;6.50;;;;;;;4.12;68.24;97658.54;108197;1257;96139;-76
2023/05/05 01:50:50;;;;;;;7.80;5.70;;;;;;;4.07;68.27;97652.90;108486;1249;104578;-79
2023/05/05 01:53:21;;;;;;;9.20;6.60;;;;;;;4.03;68.28;97651.85;108950;1250;101304;-73
2023/05/05 01:55:50;;;;;;;13.50;6.90;;;;;;;4.01;68.39;97652.64;108892;1250;100145;-73
2023/05/05 01:58:21;;;;;;;11.50;7.00;;;;;;;3.97;68.49;97651.55;108793;1250;95528;-73
2023/05/05 02:00:51;;;;;;;9.20;6.60;;;;;;;3.95;68.51;97648.64;108587;1251;96045;-77
2023/05/05 02:03:21;;;;;;;13.30;7.70;;;;;;;3.91;68.57;97643.81;108879;1250;103593;-73
2023/05/05 02:05:51;;;;;;;13.70;8.50;;;;;;;3.85;68.68;97641.00;108932;1250;101452;-73
2023/05/05 02:08:20;;;;;;;12.10;7.60;;;;;;;3.79;68.64;97641.85;108889;1250;100051;-74
2023/05/05 02:10:50;;;;;;;13.30;7.00;;;;;;;3.74;68.65;97641.23;108863;1251;95826;-73
2023/05/05 02:13:19;;;;;;;11.30;7.30;;;;;;;3.70;68.68;97644.34;108914;1250;95975;-73
2023/05/05 02:15:49;;;;;;;7.90;6.10;;;;;;;3.68;68.76;97646.73;108931;1250;103388;-76
2023/05/05 02:18:18;;;;;;;11.00;6.70;;;;;;;3.59;68.77;97646.64;108681;1250;100972;-75
2023/05/05 02:20:47;;;;;;;9.30;6.10;;;;;;;3.53;68.87;97645.13;108580;1250;100025;-73
2023/05/05 02:23:15;;;;;;;11.10;6.30;;;;;;;3.50;68.86;97642.80;108643;1250;95680;-77
2023/05/05 02:25:49;;;;;;;11.90;6.60;;;;;;;3.46;68.99;97641.56;108845;1250;96030;-73
2023/05/05 02:28:43;;;;;;;7.30;6.00;;;;;;;3.44;69.15;97641.81;108903;1250;103761;-76
2023/05/05 02:31:14;;;;;;;8.10;6.30;;;;;;;3.43;69.27;97646.84;108285;1257;101531;-73
2023/05/05 02:33:44;;;;;;;7.50;5.70;;;;;;;3.43;69.19;97647.13;108301;1257;100156;-73
2023/05/05 02:36:20;;;;;;;10.40;6.50;;;;;;;3.36;69.18;97647.85;108261;1257;95988;-73
2023/05/05 02:38:53;;;;;;;9.50;6.60;;;;;;;3.33;69.34;97646.17;108309;1257;96020;-74
2023/05/05 02:41:23;;;;;;;9.10;6.30;;;;;;;3.33;69.38;97647.23;108266;1258;103203;-75
2023/05/05 02:43:53;;;;;;;11.80;6.40;;;;;;;3.34;69.39;97648.07;108268;1257;100591;-75
2023/05/05 02:46:21;;;;;;;11.00;6.80;;;;;;;3.32;69.33;97649.16;108168;1258;100075;-75
2023/05/05 02:48:49;;;;;;;9.70;6.80;;;;;;;3.23;69.43;97650.39;108110;1258;96081;-74
2023/05/05 02:51:17;;;;;;;14.60;7.50;;;;;;;3.20;69.61;97649.27;108201;1258;96086;-73
2023/05/05 02:53:45;;;;;;;12.00;8.10;;;;;;;3.14;69.71;97650.95;108216;1257;103449;-73
2023/05/05 02:56:19;;;;;;;12.00;7.50;;;;;;;3.13;69.75;97649.71;108320;1258;101144;-77
2023/05/05 02:59:13;;;;;;;10.80;7.70;;;;;;;3.13;69.72;97653.39;108290;1257;99851;-74
2023/05/05 03:02:03;;;;;;;11.90;8.30;;;;;;;3.09;69.74;97656.45;107948;1263;95984;-73
2023/05/05 03:04:54;;;;;;;15.10;8.10;;;;;;;3.02;69.94;97659.19;107975;1264;95997;-73
2023/05/05 03:07:26;;;;;;;16.90;9.30;;;;;;;2.98;70.08;97660.46;107991;1263;103633;-73
2023/05/05 03:09:57;;;;;;;14.50;8.50;;;;;;;3.00;70.13;97661.58;108223;1258;101313;-74
2023/05/05 03:12:31;;;;;;;17.90;9.20;;;;;;;2.98;70.10;97661.20;108128;1258;99111;-74
2023/05/05 03:15:01;;;;;;;19.00;10.90;;;;;;;2.88;69.95;97662.20;108201;1258;95929;-73
2023/05/05 03:17:31;;;;;;;22.70;11.30;;;;;;;2.86;69.97;97660.69;108200;1258;96202;-73
2023/05/05 03:20:00;;;;;;;16.80;9.20;;;;;;;2.87;70.09;97662.48;108192;1258;103635;-76
2023/05/05 03:22:28;;;;;;;17.30;9.20;;;;;;;2.90;70.15;97662.57;108231;1258;101210;-73
2023/05/05 03:24:56;;;;;;;13.60;8.90;;;;;;;2.89;70.17;97662.64;108229;1258;99776;-74
2023/05/05 03:27:24;;;;;;;16.90;11.00;;;;;;;2.90;70.28;97663.48;108151;1258;95656;-73
2023/05/05 03:29:52;;;;;;;18.70;10.50;;;;;;;2.93;70.27;97660.89;108192;1259;96054;-75
2023/05/05 03:32:22;;;;;;;25.10;13.90;;;;;;;2.95;70.36;97660.95;108206;1261;103752;-73
2023/05/05 03:34:50;;;;;;;22.80;15.50;;;;;;;2.96;70.35;97659.42;108010;1258;102085;-73
2023/05/05 03:37:18;;;;;;;30.10;16.70;;;;;;;2.96;70.34;97658.94;108177;1258;99866;-73
2023/05/05 03:39:46;;;;;;;17.60;11.70;;;;;;;2.96;70.53;97657.74;108646;1250;95629;-74
2023/05/05 03:42:15;;;;;;;17.00;10.90;;;;;;;2.94;70.42;97661.83;108880;1251;96032;-74
2023/05/05 03:44:43;;;;;;;17.00;10.50;;;;;;;2.90;70.40;97666.23;108889;1250;103280;-76
2023/05/05 03:47:11;;;;;;;14.50;10.40;;;;;;;2.90;70.53;97670.00;108945;1250;101491;-74
2023/05/05 03:49:39;;;;;;;13.70;8.70;;;;;;;2.91;70.59;97672.57;108904;1250;99869;-73
2023/05/05 03:52:07;;;;;;;15.30;8.80;;;;;;;2.93;70.62;97670.75;108897;1250;95534;-73
2023/05/05 03:54:35;;;;;;;13.90;8.90;;;;;;;2.96;70.63;97667.30;108882;1250;96012;-73
2023/05/05 03:57:04;;;;;;;12.00;8.00;;;;;;;2.97;70.67;97670.69;108953;1252;103752;-73
2023/05/05 03:59:32;;;;;;;15.20;9.10;;;;;;;2.99;70.63;97673.20;108904;1250;101514;-73
2023/05/05 04:02:00;;;;;;;15.30;9.40;;;;;;;3.00;70.76;97673.62;108896;1252;99995;-74
2023/05/05 04:04:28;;;;;;;11.10;8.00;;;;;;;3.00;70.74;97675.25;108897;1250;95538;-74
2023/05/05 04:06:56;;;;;;;12.10;7.70;;;;;;;3.00;70.83;97679.29;108922;1250;96146;-74
2023/05/05 04:09:24;;;;;;;9.80;7.20;;;;;;;3.02;70.93;97679.67;108943;1250;103606;-76
2023/05/05 04:11:52;;;;;;;10.30;7.30;;;;;;;3.03;71.05;97676.85;108923;1250;101488;-74
2023/05/05 04:14:21;;;;;;;10.70;7.10;;;;;;;3.06;71.16;97679.39;108816;1250;99021;-73
2023/05/05 04:16:49;;;;;;;11.30;7.30;;;;;;;3.09;71.20;97677.44;108869;1250;95879;-75
2023/05/05 04:19:17;;;;;;;10.00;7.20;;;;;;;3.13;71.31;97680.59;108727;1250;96484;-75
2023/05/05 04:21:45;;;;;;;10.20;7.40;;;;;;;3.16;71.41;97679.36;108898;1250;103620;-75
2023/05/05 04:24:13;;;;;;;11.70;6.80;;;;;;;3.21;71.50;97682.27;108930;1250;101474;-74
2023/05/05 04:26:41;;;;;;;11.70;7.60;;;;;;;3.26;71.55;97686.58;108916;1250;100010;-74
2023/05/05 04:29:09;;;;;;;16.00;8.30;;;;;;;3.31;71.60;97683.58;108877;1250;95571;-78
2023/05/05 04:31:37;;;;;;;14.50;8.50;;;;;;;3.35;71.66;97683.64;108564;1250;95977;-73
2023/05/05 04:34:05;;;;;;;16.10;7.40;;;;;;;3.41;71.66;97687.19;108596;1250;103634;-73
2023/05/05 04:36:34;;;;;;;14.40;7.80;;;;;;;3.45;71.72;97686.85;108955;1250;101240;-76
2023/05/05 04:39:02;;;;;;;12.00;7.60;;;;;;;3.51;71.82;97689.61;108899;1250;99963;-73
2023/05/05 04:41:30;;;;;;;11.20;8.40;;;;;;;3.57;71.85;97689.91;108899;1250;95555;-74
2023/05/05 04:43:58;;;;;;;14.80;8.10;;;;;;;3.63;71.89;97686.55;108918;1250;95951;-73
2023/05/05 04:46:26;;;;;;;17.10;9.60;;;;;;;3.70;71.87;97680.51;108906;1250;103284;-78
2023/05/05 04:48:54;;;;;;;19.30;11.70;;;;;;;3.76;71.84;97680.05;108900;1250;101784;-78
2023/05/05 04:51:22;;;;;;;17.50;10.70;;;;;;;3.81;71.73;97677.68;108670;1251;99910;-74
2023/05/05 04:53:51;;;;;;;17.50;7.40;;;;;;;3.86;71.83;97673.27;108838;1250;95517;-76
2023/05/05 04:56:19;;;;;;;11.20;7.10;;;;;;;3.90;71.86;97671.76;108906;1250;96048;-77
2023/05/05 04:58:47;;;;;;;13.00;6.90;;;;;;;3.95;71.93;97668.73;108924;1250;103568;-74
2023/05/05 05:01:15;;;;;;;15.30;8.70;;;;;;;4.02;71.96;97667.15;108913;1250;101107;-74
2023/05/05 05:03:43;;;;;;;9.10;7.60;;;;;;;4.09;72.03;97664.81;108872;1250;100016;-77
2023/05/05 05:06:11;;;;;;;11.30;7.80;;;;;;;4.15;72.05;97666.96;108537;1250;95653;-74
2023/05/05 05:08:39;;;;;;;11.90;7.60;;;;;;;4.19;72.19;97669.91;108917;1250;96026;-74
2023/05/05 05:11:07;;;;;;;12.20;8.00;;;;;;;4.23;72.24;97668.34;108874;1250;103616;-74
2023/05/05 05:13:35;;;;;;;13.50;8.50;;;;;;;4.33;72.33;97668.42;108986;1250;101401;-73
2023/05/05 05:16:03;;;;;;;13.80;9.60;;;;;;;4.42;72.42;97666.33;108934;1250;100155;-74
2023/05/05 05:18:31;;;;;;;14.60;9.60;;;;;;;4.52;72.38;97670.20;108911;1250;95635;-74
2023/05/05 05:20:59;;;;;;;11.10;7.30;;;;;;;4.63;72.39;97665.06;108911;1250;95972;-74
2023/05/05 05:23:28;;;;;;;14.40;8.00;;;;;;;4.74;72.40;97662.30;108901;1250;103502;-74
2023/05/05 05:25:56;;;;;;;10.30;7.10;;;;;;;4.84;72.30;97665.77;108948;1250;101445;-74
2023/05/05 05:28:24;;;;;;;16.50;8.60;;;;;;;4.95;72.29;97665.16;108894;1250;100217;-73
2023/05/05 05:30:52;;;;;;;27.20;18.10;;;;;;;5.04;72.41;97664.15;108873;1250;95566;-74
2023/05/05 05:33:20;;;;;;;18.60;11.00;;;;;;;5.14;72.41;97661.98;108916;1250;96109;-75
2023/05/05 05:35:48;;;;;;;21.50;13.80;;;;;;;5.23;72.28;97656.60;108955;1250;103591;-74
2023/05/05 05:38:16;;;;;;;25.10;15.90;;;;;;;5.31;72.58;97656.20;108872;1250;101453;-74
2023/05/05 05:40:45;;;;;;;20.30;11.70;;;;;;;5.39;72.72;97652.59;108495;1251;100466;-74
2023/05/05 05:43:13;;;;;;;15.20;8.90;;;;;;;5.50;72.83;97648.91;108865;1250;95532;-79
2023/05/05 05:45:41;;;;;;;20.00;14.20;;;;;;;5.61;72.97;97648.90;108593;1251;96606;-74
2023/05/05 05:48:09;;;;;;;20.40;11.90;;;;;;;5.73;73.04;97654.88;108632;1251;103038;-76
2023/05/05 05:50:37;;;;;;;18.30;10.90;;;;;;;5.86;73.04;97654.31;108907;1250;101034;-74
2023/05/05 05:53:05;;;;;;;16.30;10.00;;;;;;;5.98;72.99;97658.02;108907;1250;99848;-76
2023/05/05 05:55:33;;;;;;;15.20;10.20;;;;;;;6.11;73.03;97656.70;108925;1250;95538;-74
2023/05/05 05:58:01;;;;;;;14.30;9.00;;;;;;;6.24;72.80;97654.78;108896;1250;95994;-79
2023/05/05 06:00:29;;;;;;;12.70;8.80;;;;;;;6.36;72.84;97654.42;108908;1250;103083;-74
2023/05/05 06:02:57;;;;;;;17.70;8.90;;;;;;;6.48;72.90;97654.73;108934;1250;101320;-73
2023/05/05 06:05:25;;;;;;;17.10;9.30;;;;;;;6.61;72.93;97655.20;108847;1250;99692;-74
2023/05/05 06:07:53;;;;;;;13.60;7.80;;;;;;;6.73;72.81;97655.70;108880;1250;95591;-74
2023/05/05 06:10:21;;;;;;;10.80;7.60;;;;;;;6.86;72.44;97655.45;108956;1250;95981;-77
2023/05/05 06:12:49;;;;;;;9.00;6.80;;;;;;;6.97;72.05;97649.30;108904;1250;103589;-73
2023/05/05 06:15:18;;;;;;;8.30;6.40;;;;;;;7.07;71.50;97650.52;108561;1250;101265;-74
2023/05/05 06:17:46;;;;;;;9.00;6.70;;;;;;;7.19;71.05;97647.51;108911;1250;99838;-73
2023/05/05 06:20:14;;;;;;;12.40;6.70;;;;;;;7.32;70.69;97645.46;108891;1250;95582;-73
2023/05/05 06:22:42;;;;;;;10.20;6.60;;;;;;;7.43;70.40;97644.95;108901;1250;96958;-74
2023/05/05 06:25:10;;;;;;;10.30;7.10;;;;;;;7.55;70.25;97649.17;108752;1251;103514;-74
2023/05/05 06:27:38;;;;;;;12.80;6.00;;;;;;;7.67;70.10;97648.80;108862;1250;100401;-74
2023/05/05 06:30:08;;;;;;;10.20;7.30;;;;;;;7.81;70.07;97649.00;108864;1250;99652;-74
2023/05/05 06:32:36;;;;;;;10.90;7.40;;;;;;;7.95;70.05;97650.23;108918;1250;95515;-74
2023/05/05 06:35:04;;;;;;;12.10;8.40;;;;;;;8.07;69.60;97653.73;108907;1250;96528;-73
2023/05/05 06:37:32;;;;;;;15.20;8.80;;;;;;;8.17;69.43;97657.41;108679;1251;104035;-73
2023/05/05 06:40:00;;;;;;;13.10;9.60;;;;;;;8.28;69.35;97657.66;108899;1250;101296;-73
2023/05/05 06:42:30;;;;;;;13.20;8.20;;;;;;;8.39;69.16;97658.62;108867;1250;99792;-77
2023/05/05 06:44:59;;;;;;;12.10;8.40;;;;;;;8.51;69.25;97657.95;108517;1250;95994;-73
2023/05/05 06:47:27;;;;;;;14.20;9.20;;;;;;;8.61;68.73;97656.23;108944;1250;96029;-77
2023/05/05 06:49:55;;;;;;;13.60;9.50;;;;;;;8.73;68.84;97656.09;108910;1250;103803;-72
2023/05/05 06:52:23;;;;;;;12.40;9.30;;;;;;;8.87;68.83;97653.69;108893;1250;101516;-73
2023/05/05 06:54:51;;;;;;;14.00;8.90;;;;;;;8.99;68.34;97652.80;108974;1250;99365;-74
2023/05/05 06:57:22;;;;;;;14.20;8.70;;;;;;;9.12;68.09;97655.34;108891;1250;95982;-76
2023/05/05 06:59:50;;;;;;;15.70;7.90;;;;;;;9.25;68.25;97654.86;108908;1250;95993;-74
2023/05/05 07:02:18;;;;;;;14.30;8.40;;;;;;;9.41;67.89;97650.11;108906;1250;103966;-76
2023/05/05 07:04:47;;;;;;;11.00;8.00;;;;;;;9.55;67.46;97642.52;108931;1250;101013;-73
2023/05/05 07:07:15;;;;;;;11.00;8.10;;;;;;;9.70;67.20;97646.33;108892;1250;99858;-74
2023/05/05 07:09:43;;;;;;;14.70;8.40;;;;;;;9.86;66.82;97644.41;108622;1250;95634;-74
2023/05/05 07:12:12;;;;;;;11.50;8.20;;;;;;;10.05;66.60;97639.88;108885;1250;97019;-79
2023/05/05 07:14:40;;;;;;;10.50;7.40;;;;;;;10.27;66.39;97641.01;108918;1250;103174;-75
2023/05/05 07:17:08;;;;;;;9.90;6.90;;;;;;;10.51;66.48;97641.89;108593;1250;101813;-74
2023/05/05 07:19:36;;;;;;;8.40;6.60;;;;;;;10.75;66.66;97639.85;108917;1250;99623;-78
2023/05/05 07:22:04;;;;;;;8.00;6.50;;;;;;;10.98;66.35;97639.44;108876;1250;95879;-74
2023/05/05 07:24:32;;;;;;;9.20;6.40;;;;;;;11.22;66.07;97639.00;108934;1250;95610;-75
2023/05/05 07:27:01;;;;;;;10.80;6.90;;;;;;;11.46;65.26;97635.59;108923;1250;103454;-74
2023/05/05 07:29:29;;;;;;;9.10;6.30;;;;;;;11.69;64.56;97631.64;108960;1250;101183;-75
2023/05/05 07:31:57;;;;;;;8.30;6.00;;;;;;;11.91;63.76;97631.95;108938;1250;99946;-73
2023/05/05 07:34:26;;;;;;;9.00;5.10;;;;;;;12.11;63.22;97625.91;108925;1250;95546;-73
2023/05/05 07:36:55;;;;;;;7.10;5.20;;;;;;;12.29;62.65;97627.23;108535;1250;96483;-74
2023/05/05 07:39:23;;;;;;;7.00;5.10;;;;;;;12.46;62.01;97626.66;108964;1250;103354;-75
2023/05/05 07:41:51;;;;;;;6.10;4.70;;;;;;;12.73;61.21;97624.92;108620;1250;101493;-74
2023/05/05 07:44:19;;;;;;;7.50;4.40;;;;;;;13.15;60.77;97623.34;108894;1250;99947;-73
2023/05/05 07:46:47;;;;;;;9.00;4.10;;;;;;;13.68;60.10;97623.33;108878;1250;95656;-74
2023/05/05 07:49:15;;;;;;;9.20;4.40;;;;;;;14.18;59.21;97616.20;108911;1250;95650;-76
2023/05/05 07:51:44;;;;;;;6.60;4.70;;;;;;;14.68;59.31;97611.20;108947;1250;103717;-73
2023/05/05 07:54:12;;;;;;;7.70;4.30;;;;;;;15.11;58.01;97609.20;108635;1250;101257;-78
2023/05/05 07:56:40;;;;;;;6.10;3.90;;;;;;;15.61;57.65;97602.22;108945;1250;99943;-76
2023/05/05 07:59:08;;;;;;;5.20;4.10;;;;;;;16.19;57.33;97599.80;108927;1250;95545;-78
2023/05/05 08:01:37;;;;;;;4.60;3.50;;;;;;;16.69;56.28;97600.12;108962;1250;95692;-77
2023/05/05 08:04:05;;;;;;;5.50;4.10;;;;;;;17.15;55.10;97596.11;108779;1250;103209;-74
2023/05/05 08:06:34;;;;;;;5.90;3.50;;;;;;;17.57;54.17;97593.37;108822;1251;101178;-74
2023/05/05 08:09:02;;;;;;;7.30;3.30;;;;;;;17.92;53.49;97592.88;108826;1251;100019;-74
2023/05/05 08:11:30;;;;;;;5.40;3.20;;;;;;;18.28;52.72;97591.07;108488;1250;96044;-74
2023/05/05 08:13:58;;;;;;;4.90;3.20;;;;;;;18.57;51.71;97590.47;108707;1250;97019;-74
2023/05/05 08:16:26;;;;;;;3.70;3.30;;;;;;;18.81;51.11;97589.13;108993;1250;102838;-74
2023/05/05 08:18:55;;;;;;;3.10;2.80;;;;;;;19.27;50.72;97590.45;108870;1251;101366;-75
2023/05/05 08:21:23;;;;;;;4.50;3.00;;;;;;;19.77;49.47;97585.88;108901;1250;100169;-74
2023/05/05 08:23:51;;;;;;;3.30;3.00;;;;;;;20.27;48.60;97579.91;108591;1250;95638;-76
2023/05/05 08:26:19;;;;;;;3.00;2.70;;;;;;;20.72;47.77;97583.29;108919;1250;96999;-74
2023/05/05 08:28:47;;;;;;;4.70;3.20;;;;;;;21.15;46.97;97582.34;108791;1255;103614;-74
2023/05/05 08:31:15;;;;;;;5.80;3.60;;;;;;;21.67;46.23;97575.98;108939;1250;101333;-74
2023/05/05 08:33:44;;;;;;;5.10;3.30;;;;;;;22.11;44.89;97572.67;108693;1250;99900;-74
2023/05/05 08:36:12;;;;;;;4.90;3.10;;;;;;;22.37;43.68;97565.67;108908;1250;95586;-74
2023/05/05 08:38:40;;;;;;;4.20;2.70;;;;;;;22.73;43.19;97567.91;108980;1250;96491;-77
2023/05/05 08:41:09;;;;;;;6.10;2.90;;;;;;;23.16;42.68;97567.77;108538;1250;113444;-73
2023/05/05 08:43:38;;;;;;;4.10;3.20;;;;;;;23.50;42.11;97567.58;108944;1250;101310;-76
2023/05/05 08:46:10;;;;;;;4.80;2.70;;;;;;;23.72;41.21;97566.76;108912;1250;100116;-74
2023/05/05 08:48:40;;;;;;;3.00;2.50;;;;;;;23.87;40.55;97567.20;108859;1250;95549;-75
2023/05/05 08:51:10;;;;;;;4.10;3.00;;;;;;;24.05;40.09;97564.05;108946;1250;95802;-76
2023/05/05 08:53:50;;;;;;;3.30;2.70;;;;;;;24.17;39.48;97569.48;108957;1250;112105;-75
2023/05/05 08:56:20;;;;;;;4.60;2.40;;;;;;;24.31;38.21;97568.67;108954;1250;101248;-74
2023/05/05 08:58:49;;;;;;;6.20;2.60;;;;;;;24.36;37.67;97560.73;108934;1250;99468;-74
2023/05/05 09:01:18;;;;;;;3.60;2.80;;;;;;;24.54;37.42;97556.05;108856;1251;95753;-74
2023/05/05 09:03:46;;;;;;;3.40;2.60;;;;;;;24.76;37.39;97555.86;108913;1250;95848;-75
2023/05/05 09:06:14;;;;;;;3.90;2.60;;;;;;;24.86;36.00;97555.16;108947;1250;103726;-72
2023/05/05 09:08:43;;;;;;;3.90;2.20;;;;;;;24.95;35.76;97553.59;108907;1250;101862;-72
2023/05/05 09:11:11;;;;;;;4.20;2.60;;;;;;;25.12;35.22;97548.73;108923;1250;100178;-72
2023/05/05 09:13:40;;;;;;;3.60;2.50;;;;;;;25.27;35.01;97546.72;108925;1250;95585;-74
2023/05/05 09:16:08;;;;;;;3.90;2.70;;;;;;;25.40;34.46;97546.75;108947;1250;96512;-72
2023/05/05 09:18:39;;;;;;;4.50;2.70;;;;;;;25.56;34.16;97547.42;108954;1250;103688;-72
2023/05/05 09:21:25;;;;;;;2.90;2.30;;;;;;;25.71;33.43;97546.21;108978;1250;101507;-72
2023/05/05 09:24:06;;;;;;;4.00;2.60;;;;;;;25.77;32.50;97541.34;108916;1250;100175;-75
2023/05/05 09:26:37;;;;;;;2.50;2.20;;;;;;;25.65;31.87;97539.15;108766;1254;205771;-75
2023/05/05 09:29:06;;;;;;;3.20;2.90;;;;;;;25.56;32.09;97543.05;108973;1250;95735;-73
2023/05/05 09:31:36;;;;;;;4.40;2.30;;;;;;;25.50;32.10;97540.33;108983;1250;103458;-73
2023/05/05 09:34:17;;;;;;;4.30;2.40;;;;;;;25.58;32.02;97542.30;108956;1250;101251;-73
2023/05/05 09:36:48;;;;;;;3.20;2.20;;;;;;;25.72;31.62;97538.41;108940;1250;100269;-73
2023/05/05 09:39:19;;;;;;;2.90;2.40;;;;;;;25.70;31.78;97535.14;108831;1250;95757;-73
2023/05/05 09:41:47;;;;;;;3.30;2.50;;;;;;;25.73;31.65;97535.00;108711;1251;96804;-74
2023/05/05 09:44:15;;;;;;;3.40;2.20;;;;;;;25.86;31.12;97532.16;108563;1252;103409;-74
2023/05/05 09:46:51;;;;;;;3.00;2.10;;;;;;;25.95;31.10;97532.22;108914;1250;101060;-72
2023/05/05 09:49:24;;;;;;;4.00;2.10;;;;;;;25.93;31.75;97529.93;108857;1251;99916;-74
2023/05/05 09:51:53;;;;;;;2.60;2.20;;;;;;;25.86;31.47;97531.78;108839;1250;95635;-75
2023/05/05 09:54:32;;;;;;;2.60;2.10;;;;;;;25.64;30.23;97535.29;108711;1250;96129;-75
2023/05/05 09:57:00;;;;;;;3.00;2.30;;;;;;;25.48;29.73;97532.52;108697;1256;103424;-76
2023/05/05 09:59:28;;;;;;;3.10;2.50;;;;;;;25.57;30.81;97525.17;108794;1250;101325;-76
2023/05/05 10:02:12;;;;;;;2.80;2.40;;;;;;;25.57;31.11;97526.29;108683;1250;98931;-73
2023/05/05 10:04:40;;;;;;;2.40;2.10;;;;;;;25.81;30.32;97524.52;108900;1250;95566;-77
2023/05/05 10:07:08;;;;;;;3.10;2.40;;;;;;;26.07;29.95;97516.73;108960;1250;95599;-75
2023/05/05 10:09:36;;;;;;;3.10;2.30;;;;;;;26.23;29.62;97517.62;108957;1255;103478;-74
2023/05/05 10:12:05;;;;;;;2.90;2.10;;;;;;;26.29;29.98;97515.54;108917;1250;100405;-74
2023/05/05 10:14:34;;;;;;;2.30;2.10;;;;;;;26.31;29.75;97515.55;108915;1250;99862;-75
2023/05/05 10:17:03;;;;;;;5.70;2.60;;;;;;;26.31;29.53;97516.75;108899;1250;95617;-78
2023/05/05 10:19:36;;;;;;;3.00;2.20;;;;;;;26.19;29.57;97516.21;108926;1250;95760;-75
2023/05/05 10:22:08;;;;;;;3.80;2.80;;;;;;;26.17;29.86;97513.27;108798;1251;104497;-74
2023/05/05 10:24:43;;;;;;;7.30;2.90;;;;;;;26.15;29.92;97516.12;108903;1250;101412;-72
2023/05/05 10:27:22;;;;;;;2.00;1.70;;;;;;;26.11;30.08;97514.73;108932;1250;99560;-74
2023/05/05 10:30:06;;;;;;;2.50;2.30;;;;;;;26.21;29.98;97507.96;108903;1254;96259;-73
2023/05/05 10:32:41;;;;;;;3.40;2.30;;;;;;;26.19;30.18;97505.48;108930;1250;95593;-72
2023/05/05 10:35:10;;;;;;;5.70;2.60;;;;;;;26.31;30.38;97505.40;108958;1251;103638;-75
2023/05/05 10:37:38;;;;;;;4.20;2.40;;;;;;;26.49;30.44;97507.78;108952;1250;101408;-72
2023/05/05 10:40:09;;;;;;;4.30;2.70;;;;;;;26.70;30.68;97503.02;108942;1250;99887;-73
2023/05/05 10:42:39;;;;;;;3.70;2.30;;;;;;;26.91;30.56;97497.89;108920;1250;95495;-72
2023/05/05 10:45:08;;;;;;;5.70;2.50;;;;;;;27.00;30.30;97494.13;108932;1251;95707;-71
2023/05/05 10:47:39;;;;;;;2.70;2.00;;;;;;;27.12;30.42;97490.01;108820;1250;103099;-73
2023/05/05 10:50:27;;;;;;;3.10;2.30;;;;;;;27.11;29.65;97491.56;108908;1250;101284;-74
2023/05/05 10:53:39;;;;;;;4.20;2.30;;;;;;;26.96;29.77;97494.04;108892;1251;99887;-73
2023/05/05 10:56:26;;;;;;;2.30;1.90;;;;;;;26.81;29.96;97492.88;108910;1251;95835;-73
2023/05/05 10:58:54;;;;;;;3.90;1.90;;;;;;;26.68;29.41;97489.39;108934;1251;95603;-73
2023/05/05 11:01:31;;;;;;;4.20;2.40;;;;;;;26.57;29.15;97486.27;108925;1251;103509;-73
2023/05/05 11:04:23;;;;;;;3.40;2.10;;;;;;;26.48;29.64;97486.38;108944;1250;101441;-73
2023/05/05 11:07:09;;;;;;;3.40;2.20;;;;;;;26.34;29.78;97480.06;108911;1250;99828;-73
2023/05/05 11:09:55;;;;;;;3.90;2.10;;;;;;;26.37;30.10;97478.98;108697;1250;95588;-73
2023/05/05 11:12:23;;;;;;;2.60;2.10;;;;;;;26.54;30.02;97473.61;108924;1251;96473;-72
2023/05/05 11:15:28;;;;;;;3.00;2.10;;;;;;;26.66;29.60;97477.36;108935;1250;103709;-73
2023/05/05 11:18:02;;;;;;;4.30;2.10;;;;;;;26.75;30.16;97476.20;108938;1254;100993;-73
2023/05/05 11:20:36;;;;;;;4.50;1.90;;;;;;;26.94;30.42;97473.67;108894;1251;108178;-72
2023/05/05 11:23:04;;;;;;;5.80;2.00;;;;;;;27.10;29.36;97473.70;108903;1250;95606;-75
2023/05/05 11:25:35;;;;;;;4.80;2.20;;;;;;;27.15;28.72;97472.02;108909;1251;95597;-72
2023/05/05 11:28:06;;;;;;;3.00;2.00;;;;;;;27.16;29.16;97468.55;108936;1251;103473;-73
2023/05/05 11:30:36;;;;;;;6.20;2.20;;;;;;;27.18;29.20;97469.03;108901;1250;101378;-75
2023/05/05 11:33:23;;;;;;;2.00;1.80;;;;;;;27.23;29.23;97468.98;108871;1251;100211;-73
2023/05/05 11:35:59;;;;;;;4.70;2.00;;;;;;;27.26;29.24;97470.86;108597;1254;95701;-72
2023/05/05 11:38:36;;;;;;;3.50;1.80;;;;;;;27.23;29.27;97465.98;108611;1255;95785;-73